createdAt,value
2023-03-29T00:00:20.802Z,3.73
2023-03-29T00:02:48.919Z,4.03
2023-03-29T00:05:23.475Z,4.23
2023-03-29T00:07:54.888Z,4.37
2023-03-29T00:10:24.538Z,4.60
2023-03-29T00:12:52.732Z,5.20
2023-03-29T00:15:20.156Z,4.83
2023-03-29T00:17:47.555Z,4.43
2023-03-29T00:20:15.047Z,4.37
2023-03-29T00:22:45.014Z,3.77
2023-03-29T00:25:12.449Z,4.80
2023-03-29T00:27:40.002Z,4.73
2023-03-29T00:30:07.918Z,4.73
2023-03-29T00:32:35.358Z,4.77
2023-03-29T00:35:02.748Z,4.10
2023-03-29T00:37:32.863Z,4.03
2023-03-29T00:40:00.221Z,3.83
2023-03-29T00:42:27.765Z,4.03
2023-03-29T00:45:02.120Z,4.00
2023-03-29T00:47:39.995Z,4.20
2023-03-29T00:50:11.487Z,4.10
2023-03-29T00:52:40.275Z,3.93
2023-03-29T00:55:11.571Z,3.53
2023-03-29T00:57:39.953Z,4.57
2023-03-29T01:00:10.648Z,3.97
2023-03-29T01:02:40.544Z,3.80
2023-03-29T01:05:09.198Z,3.70
2023-03-29T01:07:41.063Z,4.33
2023-03-29T01:10:12.647Z,4.70
2023-03-29T01:12:54.185Z,3.77
2023-03-29T01:15:24.612Z,4.00
2023-03-29T01:17:54.283Z,3.80
2023-03-29T01:20:27.841Z,3.53
2023-03-29T01:25:41.079Z,3.90
2023-03-29T01:28:11.742Z,3.80
2023-03-29T01:30:44.930Z,3.60
2023-03-29T01:33:32.751Z,4.15
2023-03-29T01:36:08.602Z,4.07
2023-03-29T01:38:44.318Z,3.30
2023-03-29T01:41:12.801Z,3.77
2023-03-29T01:43:46.229Z,2.83
2023-03-29T01:46:27.096Z,4.45
2023-03-29T01:48:57.645Z,2.63
2023-03-29T01:51:27.268Z,4.63
2023-03-29T01:53:59.922Z,3.80
2023-03-29T01:56:28.819Z,4.43
2023-03-29T01:59:05.730Z,3.67
2023-03-29T02:01:38.783Z,3.73
2023-03-29T02:04:11.043Z,4.63
2023-03-29T02:06:38.378Z,4.40
2023-03-29T02:09:05.786Z,5.07
2023-03-29T02:11:32.996Z,4.17
2023-03-29T02:14:00.342Z,3.60
2023-03-29T02:16:28.368Z,4.27
2023-03-29T02:18:57.373Z,3.90
2023-03-29T02:21:30.338Z,4.27
2023-03-29T02:23:59.945Z,3.50
2023-03-29T02:26:28.272Z,3.47
2023-03-29T02:28:56.485Z,3.87
2023-03-29T02:31:26.777Z,3.80
2023-03-29T02:33:59.346Z,3.57
2023-03-29T02:36:30.760Z,3.73
2023-03-29T02:38:59.318Z,4.00
2023-03-29T02:41:27.229Z,5.00
2023-03-29T02:43:56.623Z,4.37
2023-03-29T02:46:24.749Z,4.03
2023-03-29T02:48:54.203Z,4.23
2023-03-29T02:51:23.922Z,4.57
2023-03-29T02:54:00.308Z,4.20
2023-03-29T02:56:27.437Z,3.90
2023-03-29T02:58:54.539Z,4.60
2023-03-29T03:01:23.510Z,4.37
2023-03-29T03:03:52.731Z,3.87
2023-03-29T03:06:20.844Z,4.37
2023-03-29T03:08:47.535Z,4.63
2023-03-29T03:11:15.854Z,4.07
2023-03-29T03:13:42.995Z,3.43
2023-03-29T03:16:10.890Z,3.70
2023-03-29T03:18:38.111Z,4.37
2023-03-29T03:21:05.651Z,4.20
2023-03-29T03:23:32.837Z,4.60
2023-03-29T03:26:00.127Z,4.23
2023-03-29T03:28:28.031Z,4.50
2023-03-29T03:30:54.637Z,4.47
2023-03-29T03:33:21.870Z,5.50
2023-03-29T03:35:49.151Z,5.77
2023-03-29T03:38:17.412Z,5.13
2023-03-29T03:40:44.617Z,5.00
2023-03-29T03:43:12.297Z,4.93
2023-03-29T03:45:40.489Z,4.17
2023-03-29T03:48:07.842Z,3.90
2023-03-29T03:50:34.994Z,5.10
2023-03-29T03:53:02.254Z,3.50
2023-03-29T03:55:30.139Z,4.30
2023-03-29T03:57:57.739Z,4.80
2023-03-29T04:00:24.466Z,13.87
2023-03-29T04:02:52.041Z,5.47
2023-03-29T04:05:18.616Z,5.17
2023-03-29T04:07:45.963Z,4.33
2023-03-29T04:10:12.750Z,5.30
2023-03-29T04:12:40.542Z,5.17
2023-03-29T04:15:08.122Z,4.73
2023-03-29T04:17:34.845Z,4.50
2023-03-29T04:20:10.894Z,4.83
2023-03-29T04:22:37.624Z,5.67
2023-03-29T04:25:05.145Z,5.70
2023-03-29T04:27:32.191Z,5.70
2023-03-29T04:29:58.750Z,4.23
2023-03-29T04:32:26.163Z,5.47
2023-03-29T04:34:52.772Z,5.73
2023-03-29T04:37:22.131Z,5.20
2023-03-29T04:39:50.555Z,5.37
2023-03-29T04:42:18.481Z,4.70
2023-03-29T04:44:45.132Z,6.43
2023-03-29T04:47:13.748Z,7.03
2023-03-29T04:49:41.231Z,6.27
2023-03-29T04:52:08.162Z,6.47
2023-03-29T04:54:38.139Z,7.30
2023-03-29T04:57:05.528Z,7.23
2023-03-29T04:59:32.411Z,6.80
2023-03-29T05:01:59.598Z,6.50
2023-03-29T05:04:26.379Z,6.10
2023-03-29T05:06:53.102Z,6.73
2023-03-29T05:09:19.760Z,6.60
2023-03-29T05:11:46.916Z,5.90
2023-03-29T05:14:14.191Z,5.97
2023-03-29T05:16:41.180Z,7.20
2023-03-29T05:19:09.938Z,7.00
2023-03-29T05:21:37.499Z,7.50
2023-03-29T05:24:05.438Z,7.80
2023-03-29T05:26:33.242Z,8.23
2023-03-29T05:29:00.281Z,9.40
2023-03-29T05:31:26.775Z,9.40
2023-03-29T05:33:53.724Z,11.77
2023-03-29T05:36:21.141Z,9.83
2023-03-29T05:38:48.388Z,9.33
2023-03-29T05:41:16.127Z,8.87
2023-03-29T05:43:43.804Z,8.03
2023-03-29T05:46:12.491Z,8.63
2023-03-29T05:48:40.532Z,9.30
2023-03-29T05:51:07.208Z,9.63
2023-03-29T05:53:36.989Z,9.70
2023-03-29T05:56:04.196Z,8.90
2023-03-29T05:58:31.034Z,9.80
2023-03-29T06:00:57.632Z,10.47
2023-03-29T06:03:27.830Z,9.07
2023-03-29T06:05:59.648Z,9.53
2023-03-29T06:08:26.914Z,9.97
2023-03-29T06:11:06.592Z,8.73
2023-03-29T06:13:34.714Z,8.07
2023-03-29T06:16:01.346Z,9.23
2023-03-29T06:18:28.692Z,8.15
2023-03-29T06:20:56.447Z,6.82
2023-03-29T06:23:23.421Z,9.48
2023-03-29T06:25:51.620Z,7.80
2023-03-29T06:28:18.628Z,6.95
2023-03-29T06:30:46.358Z,8.50
2023-03-29T06:33:14.359Z,6.85
2023-03-29T06:35:41.686Z,7.35
2023-03-29T06:38:09.078Z,6.95
2023-03-29T06:40:38.020Z,8.45
2023-03-29T06:43:05.336Z,7.72
2023-03-29T06:45:32.983Z,6.30
2023-03-29T06:47:59.916Z,7.85
2023-03-29T06:50:26.602Z,5.95
2023-03-29T06:52:53.353Z,6.22
2023-03-29T06:55:21.843Z,5.18
2023-03-29T06:57:49.473Z,5.60
2023-03-29T07:00:19.734Z,4.32
2023-03-29T07:02:47.300Z,4.32
2023-03-29T07:05:14.811Z,4.88
2023-03-29T07:07:56.075Z,4.43
2023-03-29T07:10:46.299Z,23.27
2023-03-29T07:13:13.981Z,53.97
2023-03-29T07:15:41.180Z,8.15
2023-03-29T07:18:09.662Z,4.07
2023-03-29T07:20:38.568Z,3.60
2023-03-29T07:23:06.289Z,2.63
2023-03-29T07:25:34.726Z,2.35
2023-03-29T07:28:02.127Z,2.17
2023-03-29T07:30:31.995Z,2.47
2023-03-29T07:32:59.455Z,1.85
2023-03-29T07:35:27.696Z,1.75
2023-03-29T07:37:59.086Z,2.03
2023-03-29T07:40:26.718Z,2.33
2023-03-29T07:42:55.072Z,2.40
2023-03-29T07:45:26.601Z,1.77
2023-03-29T07:47:55.670Z,1.92
2023-03-29T07:50:22.930Z,2.22
2023-03-29T07:52:50.972Z,1.83
2023-03-29T07:55:18.082Z,2.72
2023-03-29T07:57:45.630Z,2.40
2023-03-29T08:00:16.510Z,4.15
2023-03-29T08:02:44.616Z,2.20
2023-03-29T08:05:13.301Z,2.50
2023-03-29T08:07:41.537Z,2.42
2023-03-29T08:10:14.093Z,2.83
2023-03-29T08:12:42.710Z,2.55
2023-03-29T08:15:09.701Z,9.65
2023-03-29T08:17:37.901Z,3.65
2023-03-29T08:20:06.447Z,23.75
2023-03-29T08:22:33.381Z,6.13
2023-03-29T08:25:00.171Z,2.72
2023-03-29T08:27:26.770Z,1.90
2023-03-29T08:29:53.302Z,2.15
2023-03-29T08:32:20.230Z,2.15
2023-03-29T08:34:47.198Z,3.22
2023-03-29T08:37:15.089Z,6.72
2023-03-29T08:39:41.689Z,2.30
2023-03-29T08:42:14.739Z,2.30
2023-03-29T08:44:56.810Z,3.28
2023-03-29T08:47:41.961Z,2.05
2023-03-29T08:50:09.372Z,1.55
2023-03-29T08:52:36.124Z,1.75
2023-03-29T08:55:05.857Z,2.10
2023-03-29T08:57:37.708Z,2.22
2023-03-29T09:00:06.053Z,1.90
2023-03-29T09:02:34.798Z,2.10
2023-03-29T09:05:08.492Z,2.70
2023-03-29T09:10:04.171Z,2.03
2023-03-29T09:12:50.217Z,2.03
2023-03-29T09:15:43.759Z,1.92
2023-03-29T09:18:16.728Z,1.85
2023-03-29T09:20:59.345Z,2.15
2023-03-29T09:23:32.610Z,2.90
2023-03-29T09:26:02.842Z,1.45
2023-03-29T09:28:39.014Z,1.20
2023-03-29T09:31:06.467Z,1.60
2023-03-29T09:33:38.222Z,2.10
2023-03-29T09:36:10.112Z,1.60
2023-03-29T09:38:43.468Z,1.30
2023-03-29T09:41:16.150Z,1.73
2023-03-29T09:43:44.009Z,1.88
2023-03-29T09:46:16.708Z,1.60
2023-03-29T09:48:44.653Z,2.07
2023-03-29T09:51:13.245Z,1.75
2023-03-29T09:53:39.785Z,1.60
2023-03-29T09:56:09.129Z,1.88
2023-03-29T09:58:36.355Z,3.58
2023-03-29T10:01:07.082Z,2.40
2023-03-29T10:03:35.525Z,2.10
2023-03-29T10:06:03.834Z,1.92
2023-03-29T10:08:39.343Z,2.20
2023-03-29T10:11:22.613Z,1.60
2023-03-29T10:13:51.645Z,1.83
2023-03-29T10:16:38.530Z,2.20
2023-03-29T10:19:20.119Z,1.98
2023-03-29T10:21:53.980Z,1.98
2023-03-29T10:24:22.367Z,1.95
2023-03-29T10:26:55.587Z,2.28
2023-03-29T10:29:24.094Z,1.92
2023-03-29T10:31:52.190Z,1.70
2023-03-29T10:34:56.399Z,2.05
2023-03-29T10:37:24.484Z,2.67
2023-03-29T10:39:52.079Z,1.90
2023-03-29T10:42:19.855Z,2.00
2023-03-29T10:44:54.105Z,2.45
2023-03-29T10:47:22.120Z,1.88
2023-03-29T10:49:56.652Z,1.95
2023-03-29T10:52:25.391Z,3.55
2023-03-29T10:54:55.218Z,2.15
2023-03-29T10:57:29.980Z,1.98
2023-03-29T11:00:07.612Z,1.67
2023-03-29T11:02:54.237Z,1.92
2023-03-29T11:05:27.395Z,1.58
2023-03-29T11:07:57.721Z,1.10
2023-03-29T11:10:37.344Z,1.48
2023-03-29T11:13:04.506Z,2.10
2023-03-29T11:16:08.484Z,1.70
2023-03-29T11:18:54.079Z,2.20
2023-03-29T11:21:36.633Z,1.83
2023-03-29T11:24:22.642Z,1.70
2023-03-29T11:26:52.972Z,1.90
2023-03-29T11:29:23.506Z,1.20
2023-03-29T11:31:56.665Z,1.45
2023-03-29T11:34:26.554Z,1.13
2023-03-29T11:36:59.730Z,1.42
2023-03-29T11:39:45.500Z,1.50
2023-03-29T11:42:18.218Z,1.50
2023-03-29T11:44:48.072Z,1.45
2023-03-29T11:47:19.184Z,2.60
2023-03-29T11:49:58.286Z,1.65
2023-03-29T11:52:37.027Z,3.35
2023-03-29T11:55:16.216Z,6.30
2023-03-29T11:57:54.263Z,2.35
2023-03-29T12:00:24.777Z,1.65
2023-03-29T12:02:55.302Z,1.63
2023-03-29T12:05:31.190Z,1.25
2023-03-29T12:08:03.972Z,1.27
2023-03-29T12:10:44.182Z,1.10
2023-03-29T12:13:17.332Z,1.60
2023-03-29T12:15:46.700Z,1.38
2023-03-29T12:18:18.595Z,1.23
2023-03-29T12:20:47.154Z,1.45
2023-03-29T12:23:15.245Z,1.40
2023-03-29T12:25:52.370Z,1.90
2023-03-29T12:28:51.846Z,1.98
2023-03-29T12:31:31.432Z,1.70
2023-03-29T12:34:10.966Z,1.60
2023-03-29T12:36:38.165Z,1.15
2023-03-29T12:39:05.243Z,1.55
2023-03-29T12:41:36.452Z,1.05
2023-03-29T12:44:04.107Z,1.50
2023-03-29T12:46:34.689Z,1.33
2023-03-29T12:49:09.660Z,1.35
2023-03-29T12:51:37.461Z,1.27
2023-03-29T12:54:10.738Z,1.20
2023-03-29T12:56:52.500Z,1.92
2023-03-29T12:59:37.493Z,1.60
2023-03-29T13:02:24.695Z,2.20
2023-03-29T13:04:52.676Z,1.90
2023-03-29T13:07:23.102Z,2.05
2023-03-29T13:09:51.401Z,1.50
2023-03-29T13:12:31.428Z,2.97
2023-03-29T13:15:01.895Z,2.10
2023-03-29T13:18:00.911Z,1.70
2023-03-29T13:20:38.263Z,2.22
2023-03-29T13:23:04.953Z,1.80
2023-03-29T13:25:34.458Z,2.47
2023-03-29T13:28:10.547Z,1.88
2023-03-29T13:30:50.703Z,1.60
2023-03-29T13:33:22.704Z,1.70
2023-03-29T13:35:56.064Z,2.03
2023-03-29T13:38:23.812Z,1.60
2023-03-29T13:40:53.492Z,1.80
2023-03-29T13:43:20.523Z,1.90
2023-03-29T13:45:59.869Z,1.50
2023-03-29T13:48:30.967Z,1.45
2023-03-29T13:51:01.732Z,2.10
2023-03-29T13:53:35.384Z,1.90
2023-03-29T13:56:03.505Z,2.72
2023-03-29T13:58:31.206Z,1.63
2023-03-29T14:01:16.715Z,2.08
2023-03-29T14:03:45.719Z,2.60
2023-03-29T14:06:18.733Z,2.15
2023-03-29T14:08:46.319Z,1.58
2023-03-29T14:11:21.835Z,2.10
2023-03-29T14:13:49.994Z,2.58
2023-03-29T14:16:17.328Z,1.90
2023-03-29T14:18:51.802Z,2.72
2023-03-29T14:21:20.466Z,2.60
2023-03-29T14:23:48.353Z,2.88
2023-03-29T14:26:16.949Z,1.88
2023-03-29T14:28:48.050Z,1.67
2023-03-29T14:31:18.778Z,1.83
2023-03-29T14:33:45.988Z,1.90
2023-03-29T14:36:17.248Z,2.05
2023-03-29T14:38:48.148Z,1.80
2023-03-29T14:41:14.880Z,1.80
2023-03-29T14:43:41.515Z,2.90
2023-03-29T14:46:08.403Z,1.83
2023-03-29T14:48:35.888Z,2.13
2023-03-29T14:51:04.063Z,1.38
2023-03-29T14:53:33.596Z,2.20
2023-03-29T14:56:02.638Z,1.60
2023-03-29T14:58:32.014Z,2.30
2023-03-29T15:01:03.919Z,2.38
2023-03-29T15:03:32.197Z,1.95
2023-03-29T15:06:00.877Z,2.00
2023-03-29T15:08:27.708Z,1.90
2023-03-29T15:10:54.248Z,3.05
2023-03-29T15:13:23.772Z,6.00
2023-03-29T15:15:54.259Z,5.28
2023-03-29T15:18:24.774Z,2.45
2023-03-29T15:20:52.129Z,2.55
2023-03-29T15:23:23.421Z,1.92
2023-03-29T15:25:58.305Z,2.38
2023-03-29T15:28:31.336Z,2.75
2023-03-29T15:31:24.144Z,3.60
2023-03-29T15:34:01.445Z,2.50
2023-03-29T15:36:28.308Z,2.42
2023-03-29T15:38:54.905Z,2.80
2023-03-29T15:41:21.690Z,3.10
2023-03-29T15:43:48.684Z,3.58
2023-03-29T15:46:16.941Z,3.30
2023-03-29T15:48:43.646Z,6.35
2023-03-29T15:51:12.951Z,3.22
2023-03-29T15:53:40.754Z,3.45
2023-03-29T15:56:10.272Z,4.57
2023-03-29T15:58:37.792Z,4.95
2023-03-29T16:01:11.650Z,4.38
2023-03-29T16:03:40.255Z,3.70
2023-03-29T16:06:10.322Z,3.75
2023-03-29T16:08:36.875Z,3.80
2023-03-29T16:11:05.574Z,5.30
2023-03-29T16:13:32.974Z,6.07
2023-03-29T16:16:00.838Z,5.82
2023-03-29T16:18:27.544Z,5.50
2023-03-29T16:20:54.467Z,7.47
2023-03-29T16:23:22.633Z,5.13
2023-03-29T16:25:49.467Z,5.32
2023-03-29T16:28:16.558Z,5.63
2023-03-29T16:30:43.270Z,6.10
2023-03-29T16:33:11.260Z,15.38
2023-03-29T16:35:40.470Z,17.17
2023-03-29T16:38:07.470Z,27.38
2023-03-29T16:40:35.654Z,14.13
2023-03-29T16:43:03.048Z,8.20
2023-03-29T16:45:30.389Z,4.68
2023-03-29T16:47:58.099Z,6.25
2023-03-29T16:50:25.931Z,5.90
2023-03-29T16:52:53.606Z,4.72
2023-03-29T16:55:21.104Z,6.68
2023-03-29T16:57:48.049Z,28.23
2023-03-29T17:00:16.549Z,23.67
2023-03-29T17:02:45.563Z,6.50
2023-03-29T17:05:12.934Z,5.03
2023-03-29T17:07:39.818Z,5.03
2023-03-29T17:10:10.905Z,6.90
2023-03-29T17:12:38.510Z,7.88
2023-03-29T17:15:06.172Z,8.25
2023-03-29T17:17:33.387Z,11.60
2023-03-29T17:20:01.089Z,11.75
2023-03-29T17:22:29.218Z,13.40
2023-03-29T17:24:56.704Z,15.05
2023-03-29T17:27:24.248Z,13.15
2023-03-29T17:29:51.389Z,13.80
2023-03-29T17:32:17.906Z,15.15
2023-03-29T17:34:44.681Z,20.15
2023-03-29T17:37:11.211Z,25.55
2023-03-29T17:39:38.494Z,34.88
2023-03-29T17:42:05.554Z,33.17
2023-03-29T17:44:33.865Z,30.02
2023-03-29T17:47:01.138Z,26.10
2023-03-29T17:49:28.092Z,20.95
2023-03-29T17:51:54.626Z,20.25
2023-03-29T17:54:21.233Z,21.92
2023-03-29T17:56:47.808Z,21.02
2023-03-29T17:59:16.106Z,18.58
2023-03-29T18:01:43.042Z,17.95
2023-03-29T18:04:10.510Z,18.50
2023-03-29T18:06:37.894Z,18.35
2023-03-29T18:09:05.521Z,19.23
2023-03-29T18:11:32.928Z,18.52
2023-03-29T18:14:01.164Z,18.52
2023-03-29T18:16:29.197Z,16.63
2023-03-29T18:18:55.932Z,16.20
2023-03-29T18:21:22.549Z,16.15
2023-03-29T18:23:49.915Z,17.05
2023-03-29T18:26:17.585Z,17.15
2023-03-29T18:28:47.425Z,18.00
2023-03-29T18:31:15.150Z,16.95
2023-03-29T18:33:41.878Z,21.05
2023-03-29T18:36:13.004Z,22.50
2023-03-29T18:38:40.753Z,22.85
2023-03-29T18:41:08.748Z,20.73
2023-03-29T18:43:36.111Z,19.90
2023-03-29T18:46:03.403Z,18.15
2023-03-29T18:48:30.284Z,19.02
2023-03-29T18:50:57.472Z,17.83
2023-03-29T18:53:24.136Z,18.65
2023-03-29T18:55:51.591Z,17.45
2023-03-29T18:58:21.480Z,17.50
2023-03-29T19:00:48.746Z,16.80
2023-03-29T19:03:15.371Z,14.40
2023-03-29T19:05:41.991Z,15.27
2023-03-29T19:08:09.755Z,16.15
2023-03-29T19:10:37.653Z,18.10
2023-03-29T19:13:04.840Z,16.20
2023-03-29T19:15:33.076Z,18.67
2023-03-29T19:18:00.119Z,19.02
2023-03-29T19:20:27.656Z,20.52
2023-03-29T19:22:55.124Z,18.30
2023-03-29T19:25:22.522Z,18.98
2023-03-29T19:27:50.768Z,21.00
2023-03-29T19:30:18.603Z,24.95
2023-03-29T19:32:46.354Z,32.80
2023-03-29T19:35:14.115Z,31.13
2023-03-29T19:37:41.885Z,28.90
2023-03-29T19:40:11.101Z,25.77
2023-03-29T19:42:38.884Z,21.00
2023-03-29T19:45:06.864Z,16.05
2023-03-29T19:47:34.407Z,17.50
2023-03-29T19:50:02.180Z,20.17
2023-03-29T19:52:29.586Z,14.77
2023-03-29T19:54:57.117Z,14.77
2023-03-29T19:57:26.109Z,21.15
2023-03-29T19:59:54.402Z,21.58
2023-03-29T20:02:21.051Z,29.58
2023-03-29T20:04:48.082Z,22.92
2023-03-29T20:07:14.841Z,46.83
2023-03-29T20:09:44.704Z,32.72
2023-03-29T20:12:12.365Z,43.80
2023-03-29T20:14:40.846Z,56.63
2023-03-29T20:17:08.671Z,70.88
2023-03-29T20:19:36.837Z,56.08
2023-03-29T20:22:04.865Z,39.40
2023-03-29T20:24:32.814Z,30.73
2023-03-29T20:27:00.213Z,28.95
2023-03-29T20:29:27.808Z,30.35
2023-03-29T20:31:54.476Z,36.60
2023-03-29T20:34:21.375Z,29.77
2023-03-29T20:36:47.960Z,26.52
2023-03-29T20:39:18.538Z,29.25
2023-03-29T20:41:48.047Z,78.55
2023-03-29T20:44:16.955Z,46.17
2023-03-29T20:46:46.897Z,199.38
2023-03-29T20:49:14.053Z,90.55
2023-03-29T20:51:43.389Z,83.07
2023-03-29T20:54:11.956Z,70.05
2023-03-29T20:56:40.195Z,28.02
2023-03-29T20:59:14.346Z,23.33
2023-03-29T21:01:41.697Z,24.58
2023-03-29T21:04:10.067Z,22.30
2023-03-29T21:06:40.350Z,38.55
2023-03-29T21:09:07.738Z,17.92
2023-03-29T21:11:35.045Z,35.25
2023-03-29T21:14:03.368Z,24.15
2023-03-29T21:16:31.661Z,30.13
2023-03-29T21:19:02.396Z,23.52
2023-03-29T21:21:30.203Z,19.52
2023-03-29T21:23:57.509Z,19.58
2023-03-29T21:26:24.733Z,17.17
2023-03-29T21:28:52.067Z,11.85
2023-03-29T21:31:19.406Z,20.02
2023-03-29T21:33:46.869Z,219.52
2023-03-29T21:36:14.317Z,30.40
2023-03-29T21:38:42.140Z,41.78
2023-03-29T21:41:12.589Z,20.35
2023-03-29T21:43:40.500Z,23.92
2023-03-29T21:46:08.905Z,14.20
2023-03-29T21:48:36.846Z,15.88
2023-03-29T21:51:04.656Z,14.95
2023-03-29T21:53:35.847Z,12.63
2023-03-29T21:56:03.495Z,12.02
2023-03-29T21:58:31.889Z,11.05
2023-03-29T22:00:59.514Z,10.55
2023-03-29T22:03:27.280Z,12.45
2023-03-29T22:05:58.116Z,18.63
2023-03-29T22:08:27.635Z,14.65
2023-03-29T22:10:55.661Z,19.45
2023-03-29T22:13:27.212Z,33.22
2023-03-29T22:16:01.890Z,20.05
2023-03-29T22:18:30.898Z,15.40
2023-03-29T22:20:58.253Z,12.85
2023-03-29T22:23:25.484Z,12.43
2023-03-29T22:25:52.708Z,11.80
2023-03-29T22:28:20.093Z,10.13
2023-03-29T22:30:47.397Z,11.75
2023-03-29T22:33:17.394Z,10.70
2023-03-29T22:35:44.598Z,10.15
2023-03-29T22:38:11.925Z,11.52
2023-03-29T22:40:40.768Z,24.90
2023-03-29T22:43:08.042Z,31.23
2023-03-29T22:45:35.279Z,22.58
2023-03-29T22:48:02.670Z,18.92
2023-03-29T22:50:30.028Z,23.15
2023-03-29T22:52:57.568Z,18.83
2023-03-29T22:55:25.238Z,25.15
2023-03-29T22:57:53.627Z,14.90
2023-03-29T23:00:21.003Z,27.65
2023-03-29T23:02:48.182Z,54.67
2023-03-29T23:05:15.752Z,40.72
2023-03-29T23:07:43.017Z,38.42
2023-03-29T23:10:11.699Z,42.00
2023-03-29T23:12:38.954Z,125.97
2023-03-29T23:15:06.874Z,78.63
2023-03-29T23:17:35.322Z,89.57
2023-03-29T23:20:02.677Z,53.63
2023-03-29T23:22:30.193Z,42.03
2023-03-29T23:24:57.457Z,36.65
2023-03-29T23:27:24.969Z,28.05
2023-03-29T23:29:51.640Z,17.52
2023-03-29T23:32:18.591Z,19.52
2023-03-29T23:34:45.686Z,19.60
2023-03-29T23:37:13.148Z,17.50
2023-03-29T23:39:40.498Z,30.45
2023-03-29T23:42:07.890Z,29.25
2023-03-29T23:44:35.032Z,31.45
2023-03-29T23:47:02.056Z,34.38
2023-03-29T23:49:29.092Z,19.02
2023-03-29T23:51:56.547Z,19.52
2023-03-29T23:54:23.734Z,29.00
2023-03-29T23:56:51.015Z,21.35
2023-03-29T23:59:18.291Z,46.08
